createdAt,value
2023-05-12T00:01:38.260Z,2.30
2023-05-12T00:06:39.694Z,3.00
2023-05-12T00:11:41.113Z,1.88
2023-05-12T00:16:43.298Z,2.10
2023-05-12T00:21:44.806Z,2.55
2023-05-12T00:26:46.234Z,2.55
2023-05-12T00:31:47.750Z,2.20
2023-05-12T00:36:49.199Z,2.25
2023-05-12T00:41:58.143Z,1.67
2023-05-12T00:46:59.601Z,1.92
2023-05-12T00:52:02.576Z,2.47
2023-05-12T00:57:04.327Z,2.00
2023-05-12T01:02:07.294Z,2.30
2023-05-12T01:07:22.488Z,2.60
2023-05-12T01:12:26.070Z,2.30
2023-05-12T01:17:31.920Z,1.60
2023-05-12T01:22:33.972Z,1.90
2023-05-12T01:27:39.198Z,2.22
2023-05-12T01:32:42.117Z,2.30
2023-05-12T01:37:44.029Z,1.73
2023-05-12T01:42:45.516Z,2.35
2023-05-12T01:47:47.613Z,1.77
2023-05-12T01:52:49.279Z,2.35
2023-05-12T01:57:52.688Z,2.22
2023-05-12T02:02:55.247Z,2.05
2023-05-12T02:07:57.281Z,1.95
2023-05-12T02:12:58.911Z,2.40
2023-05-12T02:18:03.641Z,2.53
2023-05-12T02:23:05.625Z,2.20
2023-05-12T02:28:10.923Z,2.50
2023-05-12T02:33:13.636Z,2.50
2023-05-12T02:38:15.129Z,2.22
2023-05-12T02:43:16.814Z,1.77
2023-05-12T02:48:18.357Z,2.78
2023-05-12T02:53:19.986Z,2.42
2023-05-12T02:58:22.287Z,2.00
2023-05-12T03:03:23.798Z,1.90
2023-05-12T03:08:25.451Z,2.65
2023-05-12T03:13:26.984Z,2.60
2023-05-12T03:18:29.085Z,2.05
2023-05-12T03:23:31.405Z,2.75
2023-05-12T03:28:33.178Z,2.35
2023-05-12T03:33:34.694Z,2.40
2023-05-12T03:38:36.928Z,2.80
2023-05-12T03:43:38.647Z,2.38
2023-05-12T03:48:40.101Z,3.00
2023-05-12T03:53:45.241Z,2.35
2023-05-12T03:58:47.934Z,2.53
2023-05-12T04:03:51.015Z,2.97
2023-05-12T04:08:52.612Z,2.85
2023-05-12T04:13:54.139Z,2.63
2023-05-12T04:18:57.329Z,2.40
2023-05-12T04:23:59.262Z,3.00
2023-05-12T04:29:04.756Z,2.40
2023-05-12T04:34:06.576Z,2.88
2023-05-12T04:39:09.652Z,2.92
2023-05-12T04:44:11.633Z,3.13
2023-05-12T04:49:14.269Z,3.45
2023-05-12T04:54:15.714Z,3.83
2023-05-12T04:59:17.726Z,3.03
2023-05-12T05:04:21.328Z,3.38
2023-05-12T05:09:22.854Z,3.22
2023-05-12T05:14:24.608Z,3.60
2023-05-12T05:19:40.483Z,3.33
2023-05-12T05:24:48.745Z,2.60
2023-05-12T05:29:50.676Z,3.40
2023-05-12T05:34:52.386Z,3.70
2023-05-12T05:39:54.029Z,3.55
2023-05-12T05:44:56.274Z,2.92
2023-05-12T05:49:58.725Z,3.47
2023-05-12T05:55:00.473Z,4.65
2023-05-12T06:00:04.968Z,3.38
2023-05-12T06:05:14.895Z,3.65
2023-05-12T06:10:16.456Z,4.57
2023-05-12T06:15:18.797Z,4.22
2023-05-12T06:20:20.662Z,4.00
2023-05-12T06:25:22.384Z,3.85
2023-05-12T06:30:24.101Z,3.25
2023-05-12T06:35:29.241Z,3.50
2023-05-12T06:40:30.692Z,3.60
2023-05-12T06:45:32.114Z,3.63
2023-05-12T06:50:34.382Z,3.63
2023-05-12T06:55:35.832Z,3.58
2023-05-12T07:00:37.329Z,3.53
2023-05-12T07:05:38.798Z,4.18
2023-05-12T07:10:40.313Z,2.85
2023-05-12T07:15:41.982Z,3.10
2023-05-12T07:20:43.991Z,3.50
2023-05-12T07:25:45.478Z,3.78
2023-05-12T07:30:47.188Z,3.40
2023-05-12T07:35:48.629Z,3.42
2023-05-12T07:40:51.234Z,2.80
2023-05-12T07:45:52.894Z,2.90
2023-05-12T07:50:54.588Z,2.63
2023-05-12T07:55:56.166Z,2.47
2023-05-12T08:01:00.121Z,2.60
2023-05-12T08:06:04.641Z,2.70
2023-05-12T08:11:06.106Z,2.90
2023-05-12T08:16:07.525Z,3.25
2023-05-12T08:21:08.987Z,2.97
2023-05-12T08:26:10.518Z,3.25
2023-05-12T08:31:12.491Z,3.53
2023-05-12T08:36:14.452Z,3.60
2023-05-12T08:41:19.997Z,3.00
2023-05-12T08:46:22.520Z,2.80
2023-05-12T08:51:24.425Z,3.00
2023-05-12T09:01:31.655Z,2.40
2023-05-12T09:06:33.297Z,2.72
2023-05-12T09:11:34.747Z,2.45
2023-05-12T09:16:45.423Z,2.72
2023-05-12T09:21:47.741Z,2.67
2023-05-12T09:26:51.498Z,2.95
2023-05-12T09:31:54.268Z,2.45
2023-05-12T09:36:57.548Z,2.70
2023-05-12T09:41:59.246Z,2.65
2023-05-12T09:47:07.932Z,2.40
2023-05-12T09:52:09.412Z,2.30
2023-05-12T09:57:12.671Z,2.35
2023-05-12T10:02:16.479Z,2.20
2023-05-12T10:07:23.084Z,2.30
2023-05-12T10:12:24.544Z,1.90
2023-05-12T10:17:26.836Z,2.70
2023-05-12T10:22:29.522Z,2.92
2023-05-12T10:27:33.250Z,2.80
2023-05-12T10:32:34.937Z,2.72
2023-05-12T10:37:37.640Z,2.28
2023-05-12T10:42:41.373Z,2.30
2023-05-12T10:47:43.168Z,2.88
2023-05-12T10:52:56.501Z,2.53
2023-05-12T10:58:05.677Z,3.28
2023-05-12T11:03:13.374Z,3.80
2023-05-12T11:08:16.606Z,3.70
2023-05-12T11:13:19.499Z,3.55
2023-05-12T11:18:21.910Z,2.85
2023-05-12T11:23:28.866Z,3.50
2023-05-12T11:28:39.898Z,3.40
2023-05-12T11:33:41.496Z,2.60
2023-05-12T11:38:50.311Z,2.72
2023-05-12T11:43:52.855Z,3.10
2023-05-12T11:48:59.639Z,3.13
2023-05-12T11:54:01.128Z,3.33
2023-05-12T11:59:02.705Z,3.15
2023-05-12T12:04:04.413Z,3.13
2023-05-12T12:09:05.945Z,3.00
2023-05-12T12:14:07.563Z,2.55
2023-05-12T12:19:09.141Z,3.20
2023-05-12T12:24:10.798Z,3.50
2023-05-12T12:29:12.427Z,2.90
2023-05-12T12:34:13.882Z,3.42
2023-05-12T12:39:16.039Z,3.28
2023-05-12T12:44:19.535Z,2.97
2023-05-12T12:49:20.949Z,3.13
2023-05-12T12:54:22.647Z,3.28
2023-05-12T12:59:24.143Z,2.90
2023-05-12T13:04:25.587Z,3.00
2023-05-12T13:09:27.070Z,2.67
2023-05-12T13:14:28.511Z,3.42
2023-05-12T13:19:29.945Z,2.38
2023-05-12T13:24:31.484Z,3.05
2023-05-12T13:29:32.932Z,3.08
2023-05-12T13:34:34.501Z,2.97
2023-05-12T13:39:35.970Z,2.95
2023-05-12T13:44:37.771Z,2.70
2023-05-12T13:49:39.225Z,2.78
2023-05-12T13:54:40.855Z,2.70
2023-05-12T13:59:42.286Z,3.00
2023-05-12T14:04:43.732Z,2.90
2023-05-12T14:09:45.555Z,3.17
2023-05-12T14:14:49.916Z,2.70
2023-05-12T14:19:51.400Z,3.33
2023-05-12T14:24:53.753Z,2.47
2023-05-12T14:29:55.237Z,2.60
2023-05-12T14:34:57.111Z,3.03
2023-05-12T14:39:58.546Z,2.58
2023-05-12T14:45:00.040Z,2.70
2023-05-12T14:50:01.480Z,2.45
2023-05-12T14:55:03.674Z,2.42
2023-05-12T15:00:07.919Z,2.95
2023-05-12T15:05:11.149Z,2.03
2023-05-12T15:10:12.873Z,2.10
2023-05-12T15:15:14.405Z,1.88
2023-05-12T15:20:15.924Z,2.17
2023-05-12T15:25:17.365Z,2.50
2023-05-12T15:30:18.864Z,2.13
2023-05-12T15:35:20.566Z,2.25
2023-05-12T15:40:22.647Z,2.15
2023-05-12T15:45:24.096Z,1.73
2023-05-12T15:50:25.701Z,1.88
2023-05-12T15:55:27.162Z,3.05
2023-05-12T16:00:28.702Z,1.92
2023-05-12T16:05:30.709Z,1.90
2023-05-12T16:10:32.199Z,1.80
2023-05-12T16:15:33.650Z,2.30
2023-05-12T16:20:35.168Z,1.95
2023-05-12T16:25:37.325Z,1.98
2023-05-12T16:30:38.747Z,1.45
2023-05-12T16:35:40.194Z,2.30
2023-05-12T16:40:41.635Z,2.08
2023-05-12T16:45:43.514Z,1.98
2023-05-12T16:50:45.026Z,2.20
2023-05-12T16:55:46.451Z,2.40
2023-05-12T17:00:47.877Z,2.30
2023-05-12T17:05:49.992Z,2.20
2023-05-12T17:10:51.644Z,1.70
2023-05-12T17:15:53.247Z,1.88
2023-05-12T17:20:54.771Z,2.10
2023-05-12T17:25:56.432Z,2.03
2023-05-12T17:30:58.551Z,2.72
2023-05-12T17:36:11.353Z,2.00
2023-05-12T17:41:13.600Z,2.20
2023-05-12T17:46:15.153Z,2.13
2023-05-12T17:51:16.880Z,1.98
2023-05-12T17:56:18.365Z,1.70
2023-05-12T18:01:19.877Z,1.85
2023-05-12T18:06:21.325Z,2.03
2023-05-12T18:11:22.822Z,2.13
2023-05-12T18:16:28.945Z,2.00
2023-05-12T18:21:31.164Z,1.90
2023-05-12T18:26:32.666Z,2.30
2023-05-12T18:31:36.017Z,2.25
2023-05-12T18:36:37.490Z,1.95
2023-05-12T18:41:38.912Z,1.75
2023-05-12T18:46:40.388Z,1.77
2023-05-12T18:51:41.855Z,1.88
2023-05-12T18:56:43.361Z,1.95
2023-05-12T19:01:44.896Z,1.80
2023-05-12T19:06:46.725Z,1.90
2023-05-12T19:11:48.154Z,3.17
2023-05-12T19:16:49.643Z,2.42
2023-05-12T19:21:52.083Z,2.40
2023-05-12T19:26:53.532Z,2.00
2023-05-12T19:31:55.187Z,2.35
2023-05-12T19:37:00.628Z,2.15
2023-05-12T19:42:02.116Z,3.28
2023-05-12T19:47:06.529Z,2.80
2023-05-12T19:52:08.140Z,2.40
2023-05-12T19:57:09.550Z,2.60
2023-05-12T20:02:14.819Z,2.40
2023-05-12T20:07:16.303Z,2.78
2023-05-12T20:12:17.765Z,3.28
2023-05-12T20:17:19.209Z,2.35
2023-05-12T20:22:21.915Z,4.03
2023-05-12T20:27:23.365Z,2.53
2023-05-12T20:32:24.995Z,3.90
2023-05-12T20:37:26.983Z,2.88
2023-05-12T20:42:28.548Z,3.80
2023-05-12T20:47:30.656Z,3.90
2023-05-12T20:52:33.713Z,4.25
2023-05-12T20:57:35.284Z,2.67
2023-05-12T21:02:36.920Z,4.88
2023-05-12T21:07:38.376Z,4.90
2023-05-12T21:12:39.852Z,4.88
2023-05-12T21:17:41.661Z,4.90
2023-05-12T21:22:43.133Z,3.92
2023-05-12T21:27:45.754Z,3.30
2023-05-12T21:32:47.257Z,3.55
2023-05-12T21:37:51.648Z,4.97
2023-05-12T21:42:53.161Z,5.28
2023-05-12T21:47:54.643Z,5.10
2023-05-12T21:52:56.126Z,5.65
2023-05-12T21:57:58.592Z,3.63
2023-05-12T22:03:00.176Z,4.00
2023-05-12T22:08:01.924Z,4.93
2023-05-12T22:13:03.356Z,4.68
2023-05-12T22:18:05.049Z,5.53
2023-05-12T22:23:06.555Z,5.32
2023-05-12T22:28:08.017Z,5.15
2023-05-12T22:33:09.527Z,4.88
2023-05-12T22:38:11.029Z,4.82
2023-05-12T22:43:15.242Z,4.88
2023-05-12T22:48:16.686Z,4.22
2023-05-12T22:53:18.155Z,4.43
2023-05-12T22:58:19.584Z,4.35
2023-05-12T23:03:21.014Z,4.20
2023-05-12T23:08:22.448Z,4.97
2023-05-12T23:13:23.888Z,3.83
2023-05-12T23:18:25.400Z,3.63
2023-05-12T23:23:26.864Z,3.75
2023-05-12T23:28:28.336Z,3.47
2023-05-12T23:33:29.946Z,4.05
2023-05-12T23:38:31.505Z,3.88
2023-05-12T23:43:32.944Z,3.95
2023-05-12T23:48:34.383Z,5.13
2023-05-12T23:53:35.861Z,4.72
2023-05-12T23:58:37.311Z,3.72
